createdAt,value
2017-10-17T00:18:06.272Z,8.37
2017-10-17T00:20:34.708Z,8.00
2017-10-17T00:23:03.118Z,9.03
2017-10-17T00:25:31.609Z,7.10
2017-10-17T00:28:02.970Z,8.10
2017-10-17T00:30:41.288Z,8.30
2017-10-17T00:33:10.503Z,8.10
2017-10-17T00:35:40.416Z,7.40
2017-10-17T00:38:08.793Z,6.90
2017-10-17T00:40:37.281Z,7.77
2017-10-17T00:43:09.495Z,8.10
2017-10-17T00:45:37.918Z,8.00
2017-10-17T00:48:06.363Z,6.57
2017-10-17T00:50:36.557Z,7.73
2017-10-17T00:53:04.973Z,6.93
2017-10-17T00:55:33.394Z,7.80
2017-10-17T00:58:01.937Z,7.30
2017-10-17T01:00:30.456Z,8.37
2017-10-17T01:02:58.916Z,7.40
2017-10-17T01:05:27.384Z,7.80
2017-10-17T01:07:55.845Z,9.10
2017-10-17T01:10:24.248Z,8.43
2017-10-17T01:12:52.680Z,8.57
2017-10-17T01:15:21.061Z,8.00
2017-10-17T01:17:49.429Z,9.03
2017-10-17T01:20:29.344Z,8.83
2017-10-17T01:22:57.720Z,7.97
2017-10-17T01:25:26.241Z,9.03
2017-10-17T01:27:56.097Z,11.23
2017-10-17T01:30:24.470Z,9.43
2017-10-17T01:32:52.886Z,9.83
2017-10-17T01:35:21.274Z,8.43
2017-10-17T01:37:49.726Z,8.13
2017-10-17T01:40:29.972Z,8.70
2017-10-17T01:42:59.236Z,9.83
2017-10-17T01:45:27.572Z,9.40
2017-10-17T01:47:57.753Z,9.83
2017-10-17T01:50:26.089Z,9.93
2017-10-17T01:53:06.333Z,9.77
2017-10-17T01:55:34.746Z,8.77
2017-10-17T01:58:08.606Z,9.10
2017-10-17T02:00:36.963Z,9.40
2017-10-17T02:03:05.410Z,9.87
2017-10-17T02:05:33.849Z,9.47
2017-10-17T02:08:02.262Z,9.80
2017-10-17T02:10:30.660Z,9.57
2017-10-17T02:12:59.066Z,9.53
2017-10-17T02:15:27.475Z,9.27
2017-10-17T02:18:10.719Z,10.50
2017-10-17T02:20:39.174Z,12.37
2017-10-17T02:23:07.537Z,11.80
2017-10-17T02:25:51.398Z,11.90
2017-10-17T02:28:23.675Z,11.40
2017-10-17T02:30:53.035Z,10.47
2017-10-17T02:33:21.397Z,11.43
2017-10-17T02:35:49.761Z,10.57
2017-10-17T02:38:18.231Z,10.87
2017-10-17T02:40:46.580Z,11.40
2017-10-17T02:43:17.775Z,10.33
2017-10-17T02:45:46.240Z,10.27
2017-10-17T02:48:17.334Z,8.97
2017-10-17T02:50:45.766Z,10.83
2017-10-17T02:53:14.162Z,11.80
2017-10-17T02:55:42.562Z,8.37
2017-10-17T02:58:21.211Z,10.67
2017-10-17T03:00:49.714Z,10.60
2017-10-17T03:03:35.679Z,10.30
2017-10-17T03:06:04.117Z,10.10
2017-10-17T03:08:32.593Z,9.83
2017-10-17T03:11:01.047Z,10.00
2017-10-17T03:13:29.536Z,9.77
2017-10-17T03:15:58.790Z,12.67
2017-10-17T03:18:27.208Z,10.63
2017-10-17T03:20:56.401Z,11.40
2017-10-17T03:23:24.785Z,10.20
2017-10-17T03:25:53.137Z,10.53
2017-10-17T03:28:21.531Z,11.40
2017-10-17T03:30:49.902Z,9.73
2017-10-17T03:33:21.122Z,10.50
2017-10-17T03:35:49.554Z,9.90
2017-10-17T03:52:03.160Z,8.73
2017-10-17T03:54:32.449Z,10.40
2017-10-17T03:57:00.907Z,11.40
2017-10-17T03:59:40.029Z,10.40
2017-10-17T04:02:08.463Z,10.50
2017-10-17T04:04:36.841Z,9.27
2017-10-17T04:07:26.768Z,9.43
2017-10-17T04:13:02.361Z,9.33
2017-10-17T04:15:30.953Z,9.70
2017-10-17T04:18:08.853Z,8.60
2017-10-17T04:20:40.954Z,8.60
2017-10-17T04:23:11.737Z,8.47
2017-10-17T04:25:43.974Z,10.70
2017-10-17T04:28:16.330Z,8.40
2017-10-17T04:30:45.650Z,8.27
2017-10-17T04:33:24.544Z,10.37
2017-10-17T04:35:54.738Z,8.43
2017-10-17T04:38:23.234Z,8.80
2017-10-17T04:40:51.576Z,9.73
2017-10-17T04:46:49.690Z,8.40
2017-10-17T04:52:22.946Z,8.00
2017-10-17T04:54:54.278Z,8.50
2017-10-17T04:57:25.095Z,8.87
2017-10-17T04:59:54.408Z,7.77
2017-10-17T05:22:07.497Z,5.70
2017-10-17T05:24:53.166Z,6.00
2017-10-17T05:30:54.489Z,4.87
2017-10-17T05:33:43.631Z,6.90
2017-10-17T05:36:14.251Z,5.50
2017-10-17T05:38:43.634Z,6.30
2017-10-17T05:41:12.453Z,5.73
2017-10-17T05:43:44.442Z,6.33
2017-10-17T05:46:13.080Z,5.03
2017-10-17T05:51:25.837Z,5.40
2017-10-17T05:53:55.403Z,6.87
2017-10-17T05:56:24.930Z,5.60
2017-10-17T05:58:53.362Z,6.40
2017-10-17T06:03:55.731Z,6.03
2017-10-17T06:06:27.151Z,4.97
2017-10-17T06:08:59.358Z,5.87
2017-10-17T06:11:28.646Z,6.03
2017-10-17T06:16:30.601Z,5.60
2017-10-17T06:24:06.603Z,5.80
2017-10-17T06:26:35.164Z,5.73
2017-10-17T06:29:07.271Z,6.10
2017-10-17T06:34:45.271Z,5.70
2017-10-17T06:42:19.810Z,5.80
2017-10-17T06:47:27.800Z,5.90
2017-10-17T06:50:00.116Z,6.93
2017-10-17T06:52:29.317Z,6.10
2017-10-17T06:54:58.663Z,7.47
2017-10-17T07:10:21.495Z,7.23
2017-10-17T07:12:59.222Z,6.67
2017-10-17T07:20:54.551Z,6.70
2017-10-17T07:23:25.525Z,5.77
2017-10-17T07:25:54.390Z,6.87
2017-10-17T07:28:23.607Z,6.60
2017-10-17T07:30:55.678Z,8.90
2017-10-17T07:33:24.570Z,6.30
2017-10-17T07:35:54.702Z,5.67
2017-10-17T07:40:59.125Z,6.43
2017-10-17T07:48:35.378Z,6.80
2017-10-17T07:51:04.451Z,7.20
2017-10-17T07:53:34.689Z,8.40
2017-10-17T07:58:54.694Z,7.10
2017-10-17T08:04:08.480Z,6.37
2017-10-17T08:06:40.794Z,21.67
2017-10-17T08:16:52.086Z,11.33
2017-10-17T08:19:20.667Z,14.87
2017-10-17T08:21:49.370Z,21.47
2017-10-17T08:24:17.926Z,17.03
2017-10-17T08:26:46.591Z,18.20
2017-10-17T08:29:15.038Z,10.47
2017-10-17T08:31:43.597Z,7.50
2017-10-17T08:36:45.259Z,7.17
2017-10-17T08:44:21.399Z,7.83
2017-10-17T08:46:49.953Z,7.63
2017-10-17T08:51:51.865Z,7.70
2017-10-17T08:56:53.129Z,9.30
2017-10-17T08:59:22.294Z,10.30
2017-10-17T09:04:23.606Z,7.90
2017-10-17T09:11:59.446Z,8.27
2017-10-17T09:14:28.271Z,8.00
2017-10-17T09:19:30.901Z,8.57
2017-10-17T09:24:33.391Z,8.90
2017-10-17T09:27:02.025Z,10.40
2017-10-17T09:32:05.041Z,7.90
2017-10-17T09:34:34.407Z,8.27
2017-10-17T09:37:03.205Z,8.33
2017-10-17T09:47:12.842Z,9.50
2017-10-17T09:54:47.208Z,10.13
2017-10-17T09:57:15.981Z,8.40
2017-10-17T10:02:17.384Z,10.00
2017-10-17T10:04:46.691Z,7.23
2017-10-17T10:07:15.431Z,6.80
2017-10-17T10:09:43.881Z,7.57
2017-10-17T10:12:12.771Z,7.20
2017-10-17T10:14:45.106Z,7.20
2017-10-17T10:17:13.467Z,7.30
2017-10-17T10:19:43.319Z,8.33
2017-10-17T10:22:11.935Z,8.40
2017-10-17T10:27:15.963Z,6.93
2017-10-17T10:34:50.102Z,7.10
2017-10-17T10:37:19.523Z,6.87
2017-10-17T10:39:48.082Z,6.40
2017-10-17T10:42:20.024Z,6.20
2017-10-17T10:44:48.521Z,6.83
2017-10-17T10:47:17.737Z,6.30
2017-10-17T10:49:46.660Z,7.43
2017-10-17T10:54:48.553Z,6.23
2017-10-17T10:59:51.498Z,6.03
2017-10-17T11:36:30.148Z,8.00
2017-10-17T11:39:02.112Z,8.73
2017-10-17T11:41:42.558Z,6.37
2017-10-17T11:44:12.005Z,6.77
2017-10-17T11:46:42.191Z,6.40
2017-10-17T11:51:45.298Z,5.60
2017-10-17T11:59:36.807Z,5.80
2017-10-17T12:02:05.347Z,4.40
2017-10-17T12:04:33.996Z,4.73
2017-10-17T12:09:35.198Z,6.23
2017-10-17T12:12:03.886Z,5.13
2017-10-17T12:14:35.029Z,5.27
2017-10-17T12:19:47.502Z,5.37
2017-10-17T12:24:48.966Z,4.53
2017-10-17T12:27:17.522Z,5.43
2017-10-17T12:29:46.004Z,4.80
2017-10-17T12:32:14.641Z,4.60
2017-10-17T12:34:43.422Z,5.70
2017-10-17T12:39:46.097Z,5.00
2017-10-17T12:42:14.666Z,3.60
2017-10-17T12:47:16.320Z,5.40
2017-10-17T12:49:44.792Z,5.40
2017-10-17T12:54:45.872Z,3.47
2017-10-17T12:57:14.402Z,4.60
2017-10-17T12:59:42.794Z,5.27
2017-10-17T13:02:13.196Z,5.53
2017-10-17T13:04:42.004Z,5.13
2017-10-17T13:07:10.450Z,5.37
2017-10-17T13:09:38.889Z,4.10
2017-10-17T13:14:40.381Z,4.23
2017-10-17T13:17:09.251Z,4.97
2017-10-17T13:19:37.857Z,4.27
2017-10-17T13:22:06.298Z,4.47
2017-10-17T13:24:34.839Z,5.70
2017-10-17T13:27:03.371Z,4.70
2017-10-17T13:29:31.926Z,3.90
2017-10-17T13:32:00.872Z,5.70
2017-10-17T13:34:29.359Z,7.20
2017-10-17T13:36:59.656Z,7.30
2017-10-17T13:39:28.113Z,4.97
2017-10-17T13:41:56.745Z,6.00
2017-10-17T13:44:25.168Z,7.83
2017-10-17T13:46:53.602Z,9.30
2017-10-17T13:49:22.281Z,6.53
2017-10-17T13:51:50.697Z,4.40
2017-10-17T13:54:19.160Z,7.07
2017-10-17T13:56:47.930Z,6.10
2017-10-17T13:59:16.641Z,4.83
2017-10-17T14:01:45.478Z,4.97
2017-10-17T14:04:15.660Z,4.03
2017-10-17T14:06:45.034Z,4.60
2017-10-17T14:09:13.503Z,5.67
2017-10-17T14:11:41.880Z,4.87
2017-10-17T14:14:10.306Z,5.27
2017-10-17T14:16:38.792Z,4.53
2017-10-17T14:19:07.421Z,4.50
2017-10-17T14:24:09.324Z,6.50
2017-10-17T14:29:14.939Z,6.10
2017-10-17T14:31:43.496Z,4.67
2017-10-17T14:34:11.972Z,5.53
2017-10-17T14:36:40.501Z,5.50
2017-10-17T14:41:41.672Z,5.67
2017-10-17T14:44:10.612Z,5.97
2017-10-17T14:46:43.019Z,4.80
2017-10-17T14:59:23.609Z,8.57
2017-10-17T15:04:24.525Z,6.37
2017-10-17T15:06:52.943Z,7.53
2017-10-17T15:09:21.377Z,6.47
2017-10-17T15:11:50.806Z,6.70
2017-10-17T15:14:19.441Z,9.43
2017-10-17T15:16:47.898Z,6.07
2017-10-17T15:19:16.630Z,7.80
2017-10-17T15:24:18.694Z,8.90
2017-10-17T15:34:25.438Z,6.43
2017-10-17T15:47:10.239Z,8.70
2017-10-17T15:52:11.457Z,9.13
2017-10-17T15:54:40.046Z,6.80
2017-10-17T15:59:41.758Z,7.03
2017-10-17T16:15:03.446Z,8.47
2017-10-17T16:20:06.019Z,8.47
2017-10-17T16:22:35.380Z,8.60
2017-10-17T16:27:36.951Z,8.57
2017-10-17T16:42:56.492Z,9.03
2017-10-17T16:45:25.471Z,10.80
2017-10-17T16:47:57.825Z,9.03
2017-10-17T16:56:09.833Z,9.00
2017-10-17T17:08:55.782Z,9.30
2017-10-17T17:11:25.065Z,11.70
2017-10-17T17:13:53.935Z,11.97
2017-10-17T17:16:22.669Z,11.23
2017-10-17T17:21:23.720Z,10.87
2017-10-17T17:23:54.008Z,11.40
2017-10-17T17:26:22.798Z,10.17
2017-10-17T17:28:52.024Z,10.37
2017-10-17T17:31:21.076Z,10.90
2017-10-17T17:33:49.587Z,11.77
2017-10-17T17:51:43.267Z,11.60
2017-10-17T18:07:13.351Z,11.07
2017-10-17T18:12:16.788Z,12.30
2017-10-17T18:17:19.525Z,12.20
2017-10-17T18:19:48.041Z,11.87
2017-10-17T18:22:17.728Z,11.20
2017-10-17T18:34:56.868Z,13.07
2017-10-17T18:37:26.048Z,12.97
2017-10-17T18:42:30.609Z,11.47
2017-10-17T18:44:59.354Z,11.13
2017-10-17T18:50:02.890Z,10.67
2017-10-17T18:52:32.184Z,11.57
2017-10-17T18:57:33.510Z,10.70
2017-10-17T19:00:06.199Z,12.90
2017-10-17T19:02:34.895Z,10.87
2017-10-17T19:05:04.006Z,10.10
2017-10-17T19:07:32.679Z,12.50
2017-10-17T19:10:02.407Z,16.60
2017-10-17T19:12:34.276Z,13.07
2017-10-17T19:15:06.491Z,12.10
2017-10-17T19:20:09.186Z,11.70
2017-10-17T19:25:10.347Z,11.77
2017-10-17T19:35:33.271Z,11.03
2017-10-17T19:38:02.861Z,10.10
2017-10-17T19:43:05.722Z,10.27
2017-10-17T19:45:38.392Z,10.23
2017-10-17T19:48:08.448Z,11.70
2017-10-17T19:50:38.574Z,9.60
2017-10-17T19:53:07.238Z,11.10
2017-10-17T19:55:35.649Z,9.97
2017-10-17T19:58:09.502Z,10.33
2017-10-17T20:00:40.150Z,11.20
2017-10-17T20:03:11.896Z,12.03
2017-10-17T20:05:40.630Z,12.20
2017-10-17T20:08:09.025Z,12.63
2017-10-17T20:10:37.531Z,14.10
2017-10-17T20:13:06.056Z,14.20
2017-10-17T20:15:34.808Z,12.50
2017-10-17T20:18:03.291Z,13.33
2017-10-17T20:20:33.469Z,13.80
2017-10-17T20:23:02.508Z,14.23
2017-10-17T20:25:33.489Z,12.37
2017-10-17T20:28:02.230Z,13.47
2017-10-17T20:30:30.915Z,14.70
2017-10-17T20:32:59.850Z,13.70
2017-10-17T20:35:28.261Z,13.27
2017-10-17T20:37:56.704Z,14.37
2017-10-17T20:40:25.479Z,13.80
2017-10-17T20:42:53.996Z,14.67
2017-10-17T20:47:54.965Z,15.07
2017-10-17T20:50:23.603Z,14.60
2017-10-17T20:52:52.167Z,14.47
2017-10-17T20:55:20.618Z,20.30
2017-10-17T20:57:49.130Z,15.23
2017-10-17T21:00:17.597Z,14.73
2017-10-17T21:02:46.039Z,13.87
2017-10-17T21:05:14.598Z,15.10
2017-10-17T21:07:43.042Z,15.73
2017-10-17T21:10:11.465Z,14.50
2017-10-17T21:12:39.915Z,13.47
2017-10-17T21:15:08.338Z,14.60
2017-10-17T21:17:36.754Z,15.40
2017-10-17T21:20:05.157Z,14.70
2017-10-17T21:22:33.592Z,14.23
2017-10-17T21:25:02.038Z,15.53
2017-10-17T21:27:31.389Z,15.87
2017-10-17T21:30:00.427Z,14.23
2017-10-17T21:32:28.955Z,15.73
2017-10-17T21:34:57.437Z,14.50
2017-10-17T21:37:25.816Z,15.80
2017-10-17T21:39:54.324Z,16.43
2017-10-17T21:42:22.712Z,17.10
2017-10-17T21:44:51.181Z,15.17
2017-10-17T21:47:19.549Z,14.70
2017-10-17T21:49:47.966Z,13.47
2017-10-17T21:52:16.374Z,13.60
2017-10-17T21:54:44.770Z,17.33
2017-10-17T21:57:13.356Z,17.27
2017-10-17T21:59:41.722Z,14.53
2017-10-17T22:02:10.067Z,14.00
2017-10-17T22:04:38.505Z,14.83
2017-10-17T22:07:06.889Z,12.17
2017-10-17T22:09:35.265Z,12.67
2017-10-17T22:12:03.624Z,13.33
2017-10-17T22:14:32.044Z,15.00
2017-10-17T22:17:00.486Z,13.97
2017-10-17T22:19:28.898Z,12.77
2017-10-17T22:21:57.280Z,13.30
2017-10-17T22:24:25.685Z,14.10
2017-10-17T22:26:54.073Z,14.53
2017-10-17T22:29:22.473Z,14.33
2017-10-17T22:31:50.837Z,12.73
2017-10-17T22:34:19.266Z,13.87
2017-10-17T22:36:47.697Z,13.00
2017-10-17T22:39:16.133Z,13.33
2017-10-17T22:41:44.542Z,14.90
2017-10-17T22:44:12.910Z,14.67
2017-10-17T22:46:41.295Z,13.40
2017-10-17T22:49:09.713Z,14.30
2017-10-17T22:51:38.129Z,13.33
2017-10-17T22:54:06.527Z,12.70
2017-10-17T22:56:34.889Z,11.57
2017-10-17T22:59:03.283Z,12.07
2017-10-17T23:01:33.262Z,12.27
2017-10-17T23:04:01.791Z,13.00
2017-10-17T23:06:30.400Z,11.80
2017-10-17T23:08:58.849Z,11.33
2017-10-17T23:11:27.237Z,11.77
2017-10-17T23:13:55.713Z,11.67
2017-10-17T23:16:24.152Z,12.33
2017-10-17T23:19:04.338Z,10.97
2017-10-17T23:21:32.744Z,12.67
2017-10-17T23:24:01.135Z,11.37
2017-10-17T23:26:29.537Z,9.77
2017-10-17T23:28:57.905Z,10.33
2017-10-17T23:31:34.377Z,11.70
2017-10-17T23:34:02.846Z,10.87
2017-10-17T23:36:31.362Z,10.33
2017-10-17T23:38:59.767Z,9.53
2017-10-17T23:41:29.845Z,9.50
2017-10-17T23:43:58.230Z,9.60
2017-10-17T23:46:26.788Z,9.13
2017-10-17T23:49:00.169Z,8.60
2017-10-17T23:51:29.367Z,8.90
2017-10-17T23:53:57.734Z,8.80
2017-10-17T23:56:26.091Z,8.50
2017-10-17T23:58:54.505Z,9.37
